logo
Search for airport 
image banner adimage banner adimage banner ad
image banner ad

YLAW - Lawlers

Located in Leinster, Australia

ICAO - YLAW, IATA -

Data provided by Airmate  

General information

Coordinates: S28°5'29" E120°32'12"
Elevation is 1598 feet MSL.
Magnetic variation is 1° East
View others Airports in Western Australia

Operational data

Special qualification required
Current time UTC:
Current local time:
Weather at : - ( 0 km )
METAR: PPIT 141801Z AUTO 24006KT 10SM -RA FEW009 BKN014 OVC027 07/06 A2946 RMK AO2 P0000 TSNO
View NOTAMs / SUP AIP / TFR affecting this airport [VIEW]
Communications frequencies: [VIEW]

Runways:

RWY identifierQFULength (ft)Width (ft)SurfaceLDA (ft)
28280°65620UNK
10100°65620UNK

Airport contact information

Address: Leinster Australia

Satellite view of YLAW